Time;durP1;ratioP1;P1;durP2;ratioP2;P2;SDS_P1;SDS_P2;PMS_P1;PMS_P2;Temp;Humidity;BMP_temperature;BMP_pressure;BME280_temperature;BME280_humidity;BME280_pressure;Samples;Min_cycle;Max_cycle;Signal;HPM_P1;HPM_P2
2021/09/25 00:02:05;;;;;;;14.95;7.10;;;;;;;;;;5110847;28;20047;-68
2021/09/25 00:04:33;;;;;;;15.23;6.90;;;;;;;;;;5110762;28;20157;-68
2021/09/25 00:06:59;;;;;;;12.77;6.45;;;;;;;;;;5110283;28;20016;-67
2021/09/25 00:09:25;;;;;;;10.15;4.40;;;;;;;;;;5110660;28;20365;-68
2021/09/25 00:11:51;;;;;;;5.53;3.20;;;;;;;;;;5109385;28;20051;-68
2021/09/25 00:14:17;;;;;;;6.78;3.35;;;;;;;;;;5110203;28;20024;-68
2021/09/25 00:16:44;;;;;;;9.85;3.63;;;;;;;;;;5110496;28;20376;-67
2021/09/25 00:19:10;;;;;;;9.32;3.67;;;;;;;;;;5110584;28;20074;-67
2021/09/25 00:21:37;;;;;;;8.52;3.92;;;;;;;;;;5108730;28;20034;-68
2021/09/25 00:24:03;;;;;;;7.57;3.90;;;;;;;;;;5110320;28;20054;-68
2021/09/25 00:26:29;;;;;;;8.95;3.40;;;;;;;;;;5110500;28;20022;-68
2021/09/25 00:28:56;;;;;;;7.45;3.85;;;;;;;;;;5109936;28;20357;-68
2021/09/25 00:31:23;;;;;;;7.25;3.72;;;;;;;;;;5110261;28;20069;-68
2021/09/25 00:33:49;;;;;;;6.88;3.78;;;;;;;;;;5110159;28;20117;-68
2021/09/25 00:36:15;;;;;;;6.78;3.40;;;;;;;;;;5110039;28;20380;-68
2021/09/25 00:38:41;;;;;;;6.95;3.88;;;;;;;;;;5108742;28;20476;-68
2021/09/25 00:41:07;;;;;;;9.20;3.78;;;;;;;;;;5109974;28;20032;-68
2021/09/25 00:43:34;;;;;;;6.45;3.25;;;;;;;;;;5108173;28;20453;-68
2021/09/25 00:46:00;;;;;;;7.88;3.42;;;;;;;;;;5108637;28;20055;-68
2021/09/25 00:48:27;;;;;;;10.27;4.30;;;;;;;;;;5109375;28;20115;-67
2021/09/25 00:50:53;;;;;;;13.02;4.40;;;;;;;;;;5109872;28;20016;-68
2021/09/25 00:53:19;;;;;;;8.57;4.13;;;;;;;;;;5110239;28;20028;-67
2021/09/25 00:55:46;;;;;;;9.52;4.63;;;;;;;;;;5099259;28;20024;-68
2021/09/25 00:58:12;;;;;;;12.73;5.00;;;;;;;;;;5096088;28;20469;-68
2021/09/25 01:00:39;;;;;;;11.23;5.63;;;;;;;;;;5096084;28;20491;-68
2021/09/25 01:03:05;;;;;;;9.40;4.20;;;;;;;;;;5094422;28;20548;-68
2021/09/25 01:05:32;;;;;;;7.90;4.10;;;;;;;;;;5095998;28;20104;-68
2021/09/25 01:07:59;;;;;;;9.07;4.45;;;;;;;;;;5096556;28;20084;-67
2021/09/25 01:10:26;;;;;;;8.88;4.80;;;;;;;;;;5094266;28;20471;-68
2021/09/25 01:12:52;;;;;;;10.60;4.85;;;;;;;;;;5096042;28;20024;-67
2021/09/25 01:15:20;;;;;;;11.43;4.28;;;;;;;;;;5095905;28;20032;-67
2021/09/25 01:17:46;;;;;;;10.15;3.78;;;;;;;;;;5095376;28;20024;-67
2021/09/25 01:20:12;;;;;;;9.13;4.22;;;;;;;;;;5096012;28;20032;-67
2021/09/25 01:22:39;;;;;;;6.78;3.92;;;;;;;;;;5095721;28;20024;-69
2021/09/25 01:25:06;;;;;;;7.95;3.45;;;;;;;;;;5095318;28;20032;-68
2021/09/25 01:27:32;;;;;;;7.95;4.00;;;;;;;;;;5095619;28;20020;-68
2021/09/25 01:30:00;;;;;;;9.32;4.25;;;;;;;;;;5094370;28;20385;-67
2021/09/25 01:32:26;;;;;;;7.32;3.67;;;;;;;;;;5095059;28;20020;-68
2021/09/25 01:34:52;;;;;;;7.72;3.92;;;;;;;;;;5095479;28;20024;-68
2021/09/25 01:37:19;;;;;;;10.43;4.32;;;;;;;;;;5095791;28;20024;-68
2021/09/25 01:39:45;;;;;;;6.95;4.15;;;;;;;;;;5095135;28;20023;-68
2021/09/25 01:42:11;;;;;;;7.93;4.10;;;;;;;;;;5095519;28;20533;-67
2021/09/25 01:44:37;;;;;;;9.57;4.22;;;;;;;;;;5094742;28;20166;-68
2021/09/25 01:47:03;;;;;;;7.70;3.80;;;;;;;;;;5095215;28;20031;-67
2021/09/25 01:49:29;;;;;;;8.00;4.03;;;;;;;;;;5095590;28;20468;-68
2021/09/25 01:51:56;;;;;;;6.45;3.97;;;;;;;;;;5094782;28;20385;-67
2021/09/25 01:54:22;;;;;;;9.57;4.03;;;;;;;;;;5095128;28;20144;-68
2021/09/25 01:56:48;;;;;;;8.70;3.40;;;;;;;;;;5095045;28;20606;-68
2021/09/25 01:59:14;;;;;;;6.82;3.30;;;;;;;;;;5094620;28;20506;-69
2021/09/25 02:01:41;;;;;;;10.23;4.47;;;;;;;;;;5095038;28;20024;-68
2021/09/25 02:04:07;;;;;;;7.00;3.67;;;;;;;;;;5094810;28;20092;-67
2021/09/25 02:06:33;;;;;;;6.88;3.58;;;;;;;;;;5092096;28;20016;-68
2021/09/25 02:08:59;;;;;;;10.70;4.35;;;;;;;;;;5094702;28;20024;-66
2021/09/25 02:11:25;;;;;;;13.27;4.78;;;;;;;;;;5093376;28;20020;-68
2021/09/25 02:13:52;;;;;;;9.57;5.25;;;;;;;;;;5094550;28;20499;-68
2021/09/25 02:16:18;;;;;;;9.07;4.88;;;;;;;;;;5094644;28;20220;-68
2021/09/25 02:18:44;;;;;;;10.88;5.07;;;;;;;;;;5093288;28;20024;-68
2021/09/25 02:21:11;;;;;;;10.15;4.63;;;;;;;;;;5094195;28;20031;-68
2021/09/25 02:23:37;;;;;;;7.57;3.75;;;;;;;;;;5094466;28;20035;-66
2021/09/25 02:26:04;;;;;;;9.00;4.10;;;;;;;;;;5093019;28;20027;-66
2021/09/25 02:28:31;;;;;;;8.88;4.32;;;;;;;;;;5093985;28;20027;-66
2021/09/25 02:30:57;;;;;;;7.32;4.25;;;;;;;;;;5094173;28;20020;-66
2021/09/25 02:33:23;;;;;;;7.30;4.03;;;;;;;;;;5094253;28;20035;-66
2021/09/25 02:35:50;;;;;;;8.10;3.75;;;;;;;;;;5093783;28;20053;-66
2021/09/25 02:38:17;;;;;;;8.98;3.80;;;;;;;;;;5094421;28;20028;-66
2021/09/25 02:40:43;;;;;;;7.90;4.40;;;;;;;;;;5094489;28;20020;-67
2021/09/25 02:43:09;;;;;;;6.55;3.42;;;;;;;;;;5093443;28;20078;-66
2021/09/25 02:45:36;;;;;;;9.02;4.10;;;;;;;;;;5094259;28;20077;-66
2021/09/25 02:48:02;;;;;;;8.77;4.57;;;;;;;;;;5093542;28;20121;-66
2021/09/25 02:50:28;;;;;;;7.13;4.18;;;;;;;;;;5093890;28;20061;-67
2021/09/25 02:52:54;;;;;;;8.25;4.07;;;;;;;;;;5094447;28;20031;-67
2021/09/25 02:55:21;;;;;;;8.57;4.20;;;;;;;;;;5093509;28;20413;-67
2021/09/25 02:57:47;;;;;;;7.82;3.90;;;;;;;;;;5093867;28;20019;-67
2021/09/25 03:00:15;;;;;;;7.70;3.83;;;;;;;;;;5092558;28;20109;-67
2021/09/25 03:02:42;;;;;;;12.30;4.90;;;;;;;;;;5093286;28;20040;-67
2021/09/25 03:05:08;;;;;;;10.00;4.35;;;;;;;;;;5093649;28;20041;-67
2021/09/25 03:07:34;;;;;;;7.55;4.90;;;;;;;;;;5093675;28;20468;-66
2021/09/25 03:10:00;;;;;;;8.98;5.03;;;;;;;;;;5093253;28;20107;-67
2021/09/25 03:12:27;;;;;;;9.10;4.43;;;;;;;;;;5092387;28;20462;-66
2021/09/25 03:14:53;;;;;;;8.55;5.07;;;;;;;;;;5093561;28;20471;-67
2021/09/25 03:17:19;;;;;;;9.02;4.80;;;;;;;;;;5091641;28;20476;-66
2021/09/25 03:19:48;;;;;;;8.95;5.20;;;;;;;;;;5092347;28;20043;-66
2021/09/25 03:22:15;;;;;;;8.85;4.60;;;;;;;;;;5092102;28;20073;-66
2021/09/25 03:24:41;;;;;;;8.38;4.53;;;;;;;;;;5093036;28;20050;-66
2021/09/25 03:27:08;;;;;;;9.98;4.70;;;;;;;;;;5092092;28;20421;-67
2021/09/25 03:29:34;;;;;;;9.40;4.72;;;;;;;;;;5093385;28;20057;-67
2021/09/25 03:32:00;;;;;;;8.60;4.88;;;;;;;;;;5093106;28;20028;-68
2021/09/25 03:34:26;;;;;;;15.90;6.35;;;;;;;;;;5093346;28;20422;-68
2021/09/25 03:36:52;;;;;;;12.88;7.25;;;;;;;;;;5092063;28;20107;-66
2021/09/25 03:39:18;;;;;;;14.45;7.13;;;;;;;;;;5092957;28;20027;-68
2021/09/25 03:41:45;;;;;;;22.20;10.02;;;;;;;;;;5093238;28;20024;-66
2021/09/25 03:44:11;;;;;;;23.83;10.80;;;;;;;;;;5092702;28;20131;-68
2021/09/25 03:46:37;;;;;;;30.02;11.15;;;;;;;;;;5093151;28;20107;-66
2021/09/25 03:49:03;;;;;;;25.50;9.98;;;;;;;;;;5093108;28;20034;-66
2021/09/25 03:51:30;;;;;;;26.25;11.32;;;;;;;;;;5092853;28;20123;-66
2021/09/25 03:53:56;;;;;;;18.95;9.70;;;;;;;;;;5093223;28;20028;-66
2021/09/25 03:56:23;;;;;;;22.23;8.13;;;;;;;;;;5093043;28;20029;-67
2021/09/25 03:58:50;;;;;;;19.38;8.05;;;;;;;;;;5091435;28;20107;-68
2021/09/25 04:01:16;;;;;;;18.58;8.88;;;;;;;;;;5091742;28;20024;-67
2021/09/25 04:03:43;;;;;;;13.45;5.60;;;;;;;;;;5092919;28;20063;-69
2021/09/25 04:06:09;;;;;;;11.93;5.57;;;;;;;;;;5092903;28;20023;-68
2021/09/25 04:08:35;;;;;;;12.75;5.93;;;;;;;;;;5093219;28;20028;-69
2021/09/25 04:11:01;;;;;;;11.38;5.55;;;;;;;;;;5093070;28;20020;-66
2021/09/25 04:13:28;;;;;;;10.13;5.50;;;;;;;;;;5092749;28;20133;-68
2021/09/25 04:15:54;;;;;;;10.40;5.97;;;;;;;;;;5093048;28;20032;-69
2021/09/25 04:18:20;;;;;;;15.20;8.20;;;;;;;;;;5091645;28;20027;-69
2021/09/25 04:20:47;;;;;;;11.93;7.00;;;;;;;;;;5092689;28;20020;-69
2021/09/25 04:23:13;;;;;;;13.88;7.88;;;;;;;;;;5092985;28;20507;-68
2021/09/25 04:25:39;;;;;;;12.75;6.47;;;;;;;;;;5093007;28;20024;-69
2021/09/25 04:28:08;;;;;;;12.30;6.65;;;;;;;;;;5092623;28;20020;-69
2021/09/25 04:30:36;;;;;;;13.10;6.57;;;;;;;;;;5094718;28;20048;-70
2021/09/25 04:33:02;;;;;;;12.98;6.38;;;;;;;;;;5097053;28;20028;-68
2021/09/25 04:35:28;;;;;;;15.65;7.05;;;;;;;;;;5096297;28;20095;-69
2021/09/25 04:37:56;;;;;;;15.40;6.95;;;;;;;;;;5096824;28;20021;-68
2021/09/25 04:40:23;;;;;;;19.52;9.23;;;;;;;;;;5096614;28;20028;-67
2021/09/25 04:42:49;;;;;;;25.33;10.73;;;;;;;;;;5096223;28;20040;-68
2021/09/25 04:45:15;;;;;;;25.33;11.02;;;;;;;;;;5096837;28;20369;-67
2021/09/25 04:47:42;;;;;;;22.73;10.65;;;;;;;;;;5096145;28;20078;-68
2021/09/25 04:50:09;;;;;;;26.77;10.60;;;;;;;;;;5096530;28;20028;-67
2021/09/25 04:52:35;;;;;;;25.30;10.70;;;;;;;;;;5096387;28;20533;-68
2021/09/25 04:55:01;;;;;;;20.02;10.45;;;;;;;;;;5095945;28;20380;-68
2021/09/25 04:57:28;;;;;;;20.15;9.90;;;;;;;;;;5096241;28;20031;-68
2021/09/25 04:59:54;;;;;;;19.02;9.57;;;;;;;;;;5096230;28;20493;-68
2021/09/25 05:02:20;;;;;;;24.40;11.90;;;;;;;;;;5095801;28;20036;-68
2021/09/25 05:04:46;;;;;;;24.63;11.13;;;;;;;;;;5094787;28;20074;-68
2021/09/25 05:07:12;;;;;;;25.38;10.80;;;;;;;;;;5096087;28;20478;-68
2021/09/25 05:09:39;;;;;;;24.67;12.68;;;;;;;;;;5095637;28;20028;-68
2021/09/25 05:12:05;;;;;;;31.13;12.90;;;;;;;;;;5096132;28;20372;-68
2021/09/25 05:14:33;;;;;;;28.35;11.82;;;;;;;;;;5095865;28;20130;-69
2021/09/25 05:16:59;;;;;;;26.73;12.63;;;;;;;;;;5095561;28;20077;-67
2021/09/25 05:19:25;;;;;;;23.17;11.00;;;;;;;;;;5095796;28;20027;-68
2021/09/25 05:21:52;;;;;;;29.80;11.27;;;;;;;;;;5095737;28;20024;-67
2021/09/25 05:24:19;;;;;;;21.08;10.55;;;;;;;;;;5095310;28;20035;-68
2021/09/25 05:26:46;;;;;;;22.83;10.50;;;;;;;;;;5095678;28;20012;-68
2021/09/25 05:29:12;;;;;;;20.10;9.48;;;;;;;;;;5095672;28;20028;-68
2021/09/25 05:31:38;;;;;;;19.05;9.25;;;;;;;;;;5095122;28;20027;-66
2021/09/25 05:34:05;;;;;;;18.20;7.78;;;;;;;;;;5095532;28;20038;-67
2021/09/25 05:36:31;;;;;;;17.33;8.65;;;;;;;;;;5095377;28;20507;-69
2021/09/25 05:38:57;;;;;;;12.60;6.20;;;;;;;;;;5095021;28;20333;-67
2021/09/25 05:41:23;;;;;;;14.75;6.80;;;;;;;;;;5095194;28;20103;-67
2021/09/25 05:43:53;;;;;;;18.67;7.55;;;;;;;;;;5094672;28;20055;-68
2021/09/25 05:46:19;;;;;;;13.50;5.75;;;;;;;;;;5095378;28;20041;-68
2021/09/25 05:48:48;;;;;;;12.55;6.10;;;;;;;;;;5094074;28;20031;-68
2021/09/25 05:51:14;;;;;;;10.82;4.97;;;;;;;;;;5093474;28;20480;-68
2021/09/25 05:53:40;;;;;;;18.60;6.85;;;;;;;;;;5095161;28;20035;-67
2021/09/25 05:56:07;;;;;;;14.40;6.60;;;;;;;;;;5095075;28;20542;-68
2021/09/25 05:58:33;;;;;;;12.23;5.78;;;;;;;;;;5094754;28;20376;-68
2021/09/25 06:00:59;;;;;;;10.38;5.05;;;;;;;;;;5095034;28;20533;-67
2021/09/25 06:03:25;;;;;;;11.57;5.72;;;;;;;;;;5094806;28;20031;-67
2021/09/25 06:05:51;;;;;;;17.13;8.35;;;;;;;;;;5094420;28;20020;-66
2021/09/25 06:09:48;;;;;;;18.58;9.35;;;;;;;;;;5111251;27;20508;-67
2021/09/25 06:12:14;;;;;;;16.77;8.95;;;;;;;;;;5110576;28;20020;-67
2021/09/25 06:16:41;;;;;;;17.05;7.10;;;;;;;;;;5111027;27;20434;-66
2021/09/25 06:19:48;;;;;;;11.15;6.07;;;;;;;;;;5110740;27;20376;-67
2021/09/25 06:22:14;;;;;;;12.30;6.20;;;;;;;;;;5111180;28;20032;-67
2021/09/25 06:27:53;;;;;;;10.27;5.35;;;;;;;;;;5110927;27;20385;-69
2021/09/25 06:30:19;;;;;;;11.57;5.35;;;;;;;;;;5111322;28;20024;-67
2021/09/25 06:32:46;;;;;;;12.77;6.57;;;;;;;;;;5111344;28;20556;-68
2021/09/25 06:36:23;;;;;;;9.80;4.93;;;;;;;;;;5110980;27;20469;-67
2021/09/25 06:39:59;;;;;;;9.00;4.88;;;;;;;;;;5110888;27;20389;-68
2021/09/25 06:42:25;;;;;;;10.45;5.32;;;;;;;;;;5111154;28;20031;-67
2021/09/25 06:46:49;;;;;;;10.98;4.63;;;;;;;;;;5111159;27;20450;-69
2021/09/25 06:54:27;;;;;;;11.40;5.25;;;;;;;;;;5110823;27;20416;-67
2021/09/25 06:56:53;;;;;;;10.00;4.38;;;;;;;;;;5110933;28;20099;-67
2021/09/25 06:59:49;;;;;;;11.43;4.70;;;;;;;;;;5173597;27;20306;-67
2021/09/25 07:02:15;;;;;;;10.88;4.30;;;;;;;;;;5151773;27;20031;-67
2021/09/25 07:04:41;;;;;;;14.93;5.07;;;;;;;;;;5152114;27;20042;-66
2021/09/25 07:07:08;;;;;;;10.60;4.88;;;;;;;;;;5133560;27;20016;-66
2021/09/25 07:09:34;;;;;;;8.57;4.40;;;;;;;;;;5151538;27;20475;-66
2021/09/25 07:12:00;;;;;;;12.55;5.28;;;;;;;;;;5151949;27;20027;-66
2021/09/25 07:14:26;;;;;;;8.80;5.53;;;;;;;;;;5152000;27;20102;-66
2021/09/25 07:16:52;;;;;;;9.75;5.43;;;;;;;;;;5151414;27;20104;-68
2021/09/25 07:19:19;;;;;;;9.38;4.57;;;;;;;;;;5133305;27;20113;-66
2021/09/25 07:25:13;;;;;;;14.32;4.88;;;;;;;;;;5111253;27;20408;-66
2021/09/25 07:27:40;;;;;;;9.38;3.88;;;;;;;;;;5109659;28;20024;-67
2021/09/25 07:33:08;;;;;;;10.70;5.00;;;;;;;;;;5111789;27;20884;-68
2021/09/25 07:37:14;;;;;;;8.43;4.15;;;;;;;;;;5110709;27;20397;-68
2021/09/25 07:39:40;;;;;;;10.15;4.80;;;;;;;;;;5110955;28;20077;-68
2021/09/25 07:42:07;;;;;;;10.63;6.00;;;;;;;;;;5111077;28;20492;-68
2021/09/25 07:44:34;;;;;;;8.80;4.38;;;;;;;;;;5109317;28;20059;-67
2021/09/25 07:47:00;;;;;;;8.80;4.05;;;;;;;;;;5110887;28;20024;-68
2021/09/25 07:49:27;;;;;;;10.30;5.72;;;;;;;;;;5110908;28;20422;-68
2021/09/25 07:53:12;;;;;;;12.10;5.18;;;;;;;;;;5111111;27;20428;-67
2021/09/25 07:59:06;;;;;;;9.70;4.32;;;;;;;;;;5110673;27;20892;-66
2021/09/25 08:01:32;;;;;;;14.65;4.00;;;;;;;;;;5111036;28;20020;-67
2021/09/25 08:03:58;;;;;;;8.77;4.30;;;;;;;;;;5111231;28;20055;-67
2021/09/25 08:06:25;;;;;;;9.32;4.18;;;;;;;;;;5110556;28;20024;-67
2021/09/25 08:08:51;;;;;;;7.90;3.70;;;;;;;;;;5109621;28;20476;-67
2021/09/25 08:13:07;;;;;;;10.52;4.15;;;;;;;;;;5110910;27;20524;-68
2021/09/25 08:15:33;;;;;;;11.98;5.18;;;;;;;;;;5111104;28;20050;-67
2021/09/25 08:18:00;;;;;;;8.73;4.38;;;;;;;;;;5110994;28;20077;-68
2021/09/25 08:20:26;;;;;;;8.73;5.00;;;;;;;;;;5110656;28;20095;-67
2021/09/25 08:22:52;;;;;;;11.60;4.18;;;;;;;;;;5110913;28;20016;-66
2021/09/25 08:25:19;;;;;;;7.68;3.75;;;;;;;;;;5110840;28;20090;-66
2021/09/25 08:27:47;;;;;;;6.13;2.97;;;;;;;;;;5109166;28;20016;-67
2021/09/25 08:30:13;;;;;;;8.88;3.83;;;;;;;;;;5110718;28;20026;-66
2021/09/25 08:32:39;;;;;;;8.13;3.70;;;;;;;;;;5110247;28;20100;-67
2021/09/25 08:35:42;;;;;;;7.35;3.90;;;;;;;;;;5111658;27;20438;-67
2021/09/25 08:38:08;;;;;;;10.18;3.30;;;;;;;;;;5109672;28;20046;-68
2021/09/25 08:40:34;;;;;;;7.05;3.65;;;;;;;;;;5110549;28;20031;-68
2021/09/25 08:44:18;;;;;;;8.65;3.95;;;;;;;;;;5111271;27;20381;-67
2021/09/25 08:46:44;;;;;;;6.75;3.70;;;;;;;;;;5110619;28;20084;-67
2021/09/25 08:49:11;;;;;;;7.32;3.50;;;;;;;;;;5110994;28;20462;-67
2021/09/25 08:51:37;;;;;;;10.90;4.22;;;;;;;;;;5111032;28;20019;-67
2021/09/25 08:54:03;;;;;;;12.05;4.68;;;;;;;;;;5110686;28;20019;-67
2021/09/25 08:56:30;;;;;;;12.27;5.05;;;;;;;;;;5111188;28;20023;-67
2021/09/25 08:58:57;;;;;;;8.95;4.43;;;;;;;;;;5110777;28;20106;-67
2021/09/25 09:02:20;;;;;;;12.80;5.80;;;;;;;;;;5110932;27;20392;-68
2021/09/25 09:04:49;;;;;;;10.25;4.75;;;;;;;;;;5111111;28;20027;-66
2021/09/25 09:07:20;;;;;;;12.00;4.40;;;;;;;;;;5109688;28;20391;-66
2021/09/25 09:11:13;;;;;;;6.55;4.00;;;;;;;;;;5111809;27;20384;-67
2021/09/25 09:13:41;;;;;;;11.95;5.13;;;;;;;;;;5111236;28;20028;-66
2021/09/25 09:16:07;;;;;;;31.17;9.80;;;;;;;;;;5110479;28;20036;-66
2021/09/25 09:19:37;;;;;;;9.00;4.28;;;;;;;;;;5111488;27;20388;-67
2021/09/25 09:22:06;;;;;;;7.75;3.78;;;;;;;;;;5110841;28;20384;-67
2021/09/25 09:24:42;;;;;;;11.85;4.38;;;;;;;;;;5111050;28;20055;-68
2021/09/25 09:27:18;;;;;;;7.32;3.17;;;;;;;;;;5110901;28;20066;-68
2021/09/25 09:29:44;;;;;;;5.57;2.95;;;;;;;;;;5110692;28;20027;-68
2021/09/25 09:32:34;;;;;;;3.95;2.15;;;;;;;;;;5111651;27;20392;-67
2021/09/25 09:36:11;;;;;;;4.32;2.20;;;;;;;;;;5110827;27;20392;-70
2021/09/25 09:40:04;;;;;;;6.63;2.67;;;;;;;;;;5152403;27;20307;-67
2021/09/25 09:42:49;;;;;;;4.78;2.67;;;;;;;;;;5131499;28;20031;-67
2021/09/25 09:45:31;;;;;;;5.35;2.50;;;;;;;;;;5113013;28;20050;-67
2021/09/25 09:47:57;;;;;;;6.97;3.33;;;;;;;;;;5131972;28;20414;-67
2021/09/25 09:50:24;;;;;;;6.32;2.88;;;;;;;;;;5130838;28;20023;-67
2021/09/25 09:52:50;;;;;;;5.05;2.30;;;;;;;;;;5131438;28;20087;-68
2021/09/25 09:55:23;;;;;;;5.07;2.25;;;;;;;;;;5131468;28;20449;-69
2021/09/25 09:58:03;;;;;;;7.53;2.97;;;;;;;;;;5130927;28;20095;-68
2021/09/25 10:00:57;;;;;;;7.82;3.97;;;;;;;;;;5070818;28;20399;-67
2021/09/25 10:03:23;;;;;;;4.60;2.72;;;;;;;;;;5070423;28;20035;-67
2021/09/25 10:05:49;;;;;;;3.63;2.15;;;;;;;;;;5068863;28;20474;-67
2021/09/25 10:08:16;;;;;;;5.70;2.42;;;;;;;;;;5070461;28;20516;-67
2021/09/25 10:10:42;;;;;;;7.35;2.53;;;;;;;;;;5070273;28;20100;-68
2021/09/25 10:13:08;;;;;;;6.38;2.67;;;;;;;;;;5069984;28;20389;-67
2021/09/25 10:15:34;;;;;;;4.00;2.08;;;;;;;;;;5070263;28;20021;-67
2021/09/25 10:18:00;;;;;;;4.10;2.30;;;;;;;;;;5069732;28;20082;-67
2021/09/25 10:20:27;;;;;;;5.07;2.47;;;;;;;;;;5069892;28;20501;-68
2021/09/25 10:22:54;;;;;;;6.53;2.42;;;;;;;;;;5070110;28;20043;-68
2021/09/25 10:25:20;;;;;;;10.80;3.42;;;;;;;;;;5068380;28;20473;-67
2021/09/25 10:27:46;;;;;;;4.30;2.38;;;;;;;;;;5068824;28;20029;-67
2021/09/25 10:30:13;;;;;;;6.28;2.42;;;;;;;;;;5070249;28;20464;-67
2021/09/25 10:32:51;;;;;;;6.47;2.17;;;;;;;;;;5069589;28;20021;-67
2021/09/25 10:35:28;;;;;;;4.70;2.50;;;;;;;;;;5069847;28;20021;-67
2021/09/25 10:37:56;;;;;;;7.07;3.47;;;;;;;;;;5070032;28;20021;-68
2021/09/25 10:40:23;;;;;;;3.08;1.85;;;;;;;;;;5069235;28;20032;-67
2021/09/25 10:42:56;;;;;;;3.63;1.50;;;;;;;;;;5069680;28;20021;-68
2021/09/25 10:45:39;;;;;;;4.18;1.90;;;;;;;;;;5070341;28;20017;-67
2021/09/25 10:48:13;;;;;;;3.60;1.85;;;;;;;;;;5069730;28;20045;-67
2021/09/25 10:50:41;;;;;;;4.47;1.90;;;;;;;;;;5069669;28;20025;-67
2021/09/25 10:53:07;;;;;;;6.55;2.08;;;;;;;;;;5067926;28;20492;-68
2021/09/25 10:55:35;;;;;;;3.70;2.00;;;;;;;;;;5069408;28;20033;-67
2021/09/25 10:58:18;;;;;;;6.05;1.77;;;;;;;;;;5068161;28;20075;-68
2021/09/25 11:01:03;;;;;;;3.42;1.92;;;;;;;;;;5068697;28;20103;-67
2021/09/25 11:03:41;;;;;;;2.40;1.35;;;;;;;;;;5069409;28;20138;-67
2021/09/25 11:06:09;;;;;;;3.42;1.70;;;;;;;;;;5067874;28;20389;-67
2021/09/25 11:08:35;;;;;;;3.00;1.60;;;;;;;;;;5067473;28;20028;-68
2021/09/25 11:11:12;;;;;;;3.28;1.80;;;;;;;;;;5062751;28;20466;-67
2021/09/25 11:13:56;;;;;;;3.75;1.67;;;;;;;;;;5056065;28;20025;-68
2021/09/25 11:16:41;;;;;;;6.47;2.80;;;;;;;;;;5055434;28;20025;-68
2021/09/25 11:19:10;;;;;;;5.05;2.05;;;;;;;;;;5056173;28;20025;-67
2021/09/25 11:21:37;;;;;;;3.65;1.77;;;;;;;;;;5054012;28;20586;-67
2021/09/25 11:24:03;;;;;;;4.63;1.77;;;;;;;;;;5055865;28;20057;-67
2021/09/25 11:26:29;;;;;;;3.13;1.80;;;;;;;;;;5055807;28;20025;-67
2021/09/25 11:29:08;;;;;;;3.30;1.60;;;;;;;;;;5055415;28;20036;-68
2021/09/25 11:31:34;;;;;;;4.15;1.80;;;;;;;;;;5055586;28;20029;-67
2021/09/25 11:34:00;;;;;;;3.97;1.52;;;;;;;;;;5055630;28;20040;-68
2021/09/25 11:36:29;;;;;;;4.13;1.90;;;;;;;;;;5055394;28;20582;-67
2021/09/25 11:38:56;;;;;;;3.80;1.30;;;;;;;;;;5055533;28;20448;-67
2021/09/25 11:41:22;;;;;;;3.30;1.90;;;;;;;;;;5054042;28;20469;-67
2021/09/25 11:43:55;;;;;;;4.25;2.05;;;;;;;;;;5053673;28;20151;-67
2021/09/25 11:46:22;;;;;;;4.60;2.17;;;;;;;;;;5055159;28;20082;-67
2021/09/25 11:48:49;;;;;;;3.28;1.70;;;;;;;;;;5055222;28;20023;-67
2021/09/25 11:51:15;;;;;;;4.97;1.88;;;;;;;;;;5053499;28;20421;-67
2021/09/25 11:53:45;;;;;;;5.93;2.45;;;;;;;;;;5055201;28;20122;-67
2021/09/25 11:56:11;;;;;;;5.50;2.15;;;;;;;;;;5053769;28;20537;-66
2021/09/25 11:58:37;;;;;;;4.82;2.17;;;;;;;;;;5053117;28;20029;-66
2021/09/25 12:01:04;;;;;;;4.05;1.92;;;;;;;;;;5055253;28;20052;-67
2021/09/25 12:03:39;;;;;;;2.10;1.40;;;;;;;;;;5054662;28;20494;-67
2021/09/25 12:06:05;;;;;;;1.95;1.30;;;;;;;;;;5054990;28;20025;-68
2021/09/25 12:08:32;;;;;;;3.65;1.40;;;;;;;;;;5054849;28;20036;-68
2021/09/25 12:11:02;;;;;;;3.00;1.70;;;;;;;;;;5054399;28;20028;-67
2021/09/25 12:13:28;;;;;;;6.43;1.80;;;;;;;;;;5054934;28;20021;-67
2021/09/25 12:15:55;;;;;;;4.53;1.65;;;;;;;;;;5053382;28;20021;-67
2021/09/25 12:18:25;;;;;;;3.67;1.83;;;;;;;;;;5054357;28;20017;-67
2021/09/25 12:21:00;;;;;;;23.83;9.90;;;;;;;;;;5054505;28;20033;-65
2021/09/25 12:23:42;;;;;;;20.95;7.30;;;;;;;;;;5052212;28;20049;-67
2021/09/25 12:26:09;;;;;;;4.65;2.17;;;;;;;;;;5052744;28;20492;-66
2021/09/25 12:28:35;;;;;;;6.90;2.92;;;;;;;;;;5054601;28;20024;-67
2021/09/25 12:31:09;;;;;;;5.07;2.22;;;;;;;;;;5054354;28;20029;-67
2021/09/25 12:33:36;;;;;;;5.10;2.35;;;;;;;;;;5054034;28;20055;-67
2021/09/25 12:36:12;;;;;;;4.82;2.90;;;;;;;;;;5054259;28;20473;-67
2021/09/25 12:38:49;;;;;;;4.80;2.10;;;;;;;;;;5053779;28;20389;-67
2021/09/25 12:41:16;;;;;;;6.07;2.95;;;;;;;;;;5054432;28;20025;-67
2021/09/25 12:43:44;;;;;;;5.05;2.20;;;;;;;;;;5052778;28;20071;-67
2021/09/25 12:46:12;;;;;;;4.35;2.20;;;;;;;;;;5053741;28;20545;-67
2021/09/25 12:48:58;;;;;;;3.00;1.60;;;;;;;;;;5052823;28;20032;-67
2021/09/25 12:51:28;;;;;;;3.67;2.00;;;;;;;;;;5054047;28;20489;-67
2021/09/25 12:53:55;;;;;;;4.38;1.73;;;;;;;;;;5052267;28;20052;-67
2021/09/25 12:56:21;;;;;;;3.67;2.03;;;;;;;;;;5053886;28;20509;-67
2021/09/25 12:58:51;;;;;;;3.97;1.80;;;;;;;;;;5053618;28;20029;-67
2021/09/25 13:01:27;;;;;;;1.83;1.15;;;;;;;;;;5053634;28;20108;-66
2021/09/25 13:03:53;;;;;;;5.15;2.40;;;;;;;;;;5054144;28;20489;-67
2021/09/25 13:06:23;;;;;;;4.22;2.35;;;;;;;;;;5053668;28;20082;-66
2021/09/25 13:09:02;;;;;;;6.00;3.53;;;;;;;;;;5053385;28;20112;-67
2021/09/25 13:11:28;;;;;;;5.18;2.38;;;;;;;;;;5053647;28;20036;-66
2021/09/25 13:14:27;;;;;;;4.45;2.40;;;;;;;;;;5053309;28;20044;-67
2021/09/25 13:16:56;;;;;;;8.43;3.97;;;;;;;;;;5041565;28;20037;-67
2021/09/25 13:19:22;;;;;;;4.68;2.60;;;;;;;;;;5053917;28;20036;-66
2021/09/25 13:21:48;;;;;;;5.20;2.40;;;;;;;;;;5053025;28;20086;-66
2021/09/25 13:24:16;;;;;;;2.90;2.03;;;;;;;;;;5052184;28;20021;-67
2021/09/25 13:26:42;;;;;;;7.75;2.35;;;;;;;;;;5053454;28;20055;-67
2021/09/25 13:29:08;;;;;;;5.40;2.83;;;;;;;;;;5051580;28;20474;-66
2021/09/25 13:31:34;;;;;;;5.90;2.50;;;;;;;;;;5053275;28;20032;-67
2021/09/25 13:34:00;;;;;;;6.47;3.28;;;;;;;;;;5053243;28;20466;-67
2021/09/25 13:36:26;;;;;;;6.57;2.33;;;;;;;;;;5052801;28;20120;-67
2021/09/25 13:38:53;;;;;;;5.22;2.10;;;;;;;;;;5051772;28;20020;-67
2021/09/25 13:41:26;;;;;;;4.53;1.95;;;;;;;;;;5053223;28;20025;-67
2021/09/25 13:43:53;;;;;;;11.30;2.42;;;;;;;;;;5052907;28;20045;-67
2021/09/25 13:46:19;;;;;;;3.25;1.30;;;;;;;;;;5053160;28;20454;-67
2021/09/25 13:48:46;;;;;;;5.13;2.22;;;;;;;;;;5053099;28;20025;-67
2021/09/25 13:51:12;;;;;;;4.45;2.55;;;;;;;;;;5052664;28;20055;-67
2021/09/25 13:53:38;;;;;;;7.18;2.03;;;;;;;;;;5053052;28;20025;-68
2021/09/25 13:56:04;;;;;;;6.10;3.20;;;;;;;;;;5052644;28;20513;-67
2021/09/25 13:58:30;;;;;;;7.95;4.70;;;;;;;;;;5052845;28;20032;-67
2021/09/25 14:00:59;;;;;;;4.32;2.25;;;;;;;;;;5052881;28;20082;-67
2021/09/25 14:03:25;;;;;;;4.20;2.20;;;;;;;;;;5052564;28;20045;-67
2021/09/25 14:05:51;;;;;;;2.28;1.40;;;;;;;;;;5051557;28;20389;-67
2021/09/25 14:08:20;;;;;;;3.33;2.10;;;;;;;;;;5052848;28;20377;-67
2021/09/25 14:10:46;;;;;;;6.35;2.65;;;;;;;;;;5052434;28;20024;-67
2021/09/25 14:13:13;;;;;;;4.72;2.40;;;;;;;;;;5052963;28;20487;-67
2021/09/25 14:15:39;;;;;;;5.95;2.60;;;;;;;;;;5052862;28;20047;-68
2021/09/25 14:18:09;;;;;;;3.70;2.20;;;;;;;;;;5052342;28;20021;-67
2021/09/25 14:20:40;;;;;;;5.03;2.15;;;;;;;;;;5052611;28;20025;-67
2021/09/25 14:23:07;;;;;;;3.05;1.63;;;;;;;;;;5051480;28;20024;-67
2021/09/25 14:25:33;;;;;;;3.13;1.50;;;;;;;;;;5052336;28;20036;-67
2021/09/25 14:27:59;;;;;;;4.63;2.28;;;;;;;;;;5052787;28;20040;-68
2021/09/25 14:30:25;;;;;;;6.28;2.33;;;;;;;;;;5052736;28;20030;-67
2021/09/25 14:32:51;;;;;;;4.80;2.42;;;;;;;;;;5052387;28;20430;-68
2021/09/25 14:35:17;;;;;;;3.67;2.47;;;;;;;;;;5051330;28;20172;-67
2021/09/25 14:37:44;;;;;;;6.00;2.75;;;;;;;;;;5052715;28;20091;-68
2021/09/25 14:40:11;;;;;;;2.55;1.70;;;;;;;;;;5052272;28;20079;-67
2021/09/25 14:42:38;;;;;;;4.47;2.63;;;;;;;;;;5051677;28;20469;-68
2021/09/25 14:45:05;;;;;;;3.22;1.63;;;;;;;;;;5052522;28;20029;-67
2021/09/25 14:47:32;;;;;;;3.40;1.55;;;;;;;;;;5055512;28;20130;-67
2021/09/25 14:49:58;;;;;;;2.83;1.58;;;;;;;;;;5056413;28;20096;-67
2021/09/25 14:52:26;;;;;;;3.63;1.38;;;;;;;;;;5055994;28;20367;-67
2021/09/25 14:54:52;;;;;;;4.82;2.30;;;;;;;;;;5056306;28;20017;-68
2021/09/25 14:57:18;;;;;;;4.38;2.58;;;;;;;;;;5056145;28;20045;-67
2021/09/25 14:59:44;;;;;;;4.75;2.70;;;;;;;;;;5055419;28;20056;-68
2021/09/25 15:02:11;;;;;;;5.07;2.75;;;;;;;;;;5056110;28;20029;-67
2021/09/25 15:04:37;;;;;;;4.38;2.72;;;;;;;;;;5055983;28;20358;-68
2021/09/25 15:07:03;;;;;;;4.25;2.30;;;;;;;;;;5055651;28;20025;-67
2021/09/25 15:09:30;;;;;;;6.38;3.13;;;;;;;;;;5055906;28;20017;-67
2021/09/25 15:11:56;;;;;;;4.80;2.70;;;;;;;;;;5055921;28;20478;-67
2021/09/25 15:14:22;;;;;;;5.18;2.60;;;;;;;;;;5055415;28;20029;-67
2021/09/25 15:16:48;;;;;;;4.00;2.28;;;;;;;;;;5055844;28;20025;-67
2021/09/25 15:19:14;;;;;;;2.80;1.80;;;;;;;;;;5054430;28;20378;-67
2021/09/25 15:21:41;;;;;;;3.83;2.03;;;;;;;;;;5055417;28;20032;-68